createdAt,value
2019-01-30T00:00:42.255Z,96081.63
2019-01-30T00:03:12.813Z,96085.00
2019-01-30T00:05:43.449Z,96074.61
2019-01-30T00:08:13.992Z,96070.44
2019-01-30T00:10:44.608Z,96062.73
2019-01-30T00:13:15.231Z,96062.11
2019-01-30T00:15:55.791Z,96055.98
2019-01-30T00:18:18.332Z,96051.00
2019-01-30T00:20:49.123Z,96044.13
2019-01-30T00:23:19.722Z,96039.60
2019-01-30T00:25:51.703Z,96038.96
2019-01-30T00:28:24.980Z,96037.16
2019-01-30T00:30:55.643Z,96030.09
2019-01-30T00:33:26.247Z,96020.66
2019-01-30T00:35:56.985Z,96019.37
2019-01-30T00:38:27.617Z,96014.84
2019-01-30T00:40:58.239Z,96013.88
2019-01-30T00:43:28.876Z,96015.48
2019-01-30T00:45:59.671Z,96011.31
2019-01-30T00:48:30.344Z,96020.17
2019-01-30T00:51:04.978Z,96014.36
2019-01-30T00:53:35.606Z,96010.28
2019-01-30T00:56:06.817Z,96001.29
2019-01-30T00:58:37.448Z,95993.55
2019-01-30T01:01:08.787Z,95993.55
2019-01-30T01:03:39.727Z,95996.57
2019-01-30T01:06:13.380Z,95986.13
2019-01-30T01:08:48.544Z,95981.59
2019-01-30T01:11:21.685Z,95971.13
2019-01-30T01:13:52.393Z,95964.21
2019-01-30T01:16:25.771Z,95962.56
2019-01-30T01:18:56.513Z,95959.36
2019-01-30T01:21:32.538Z,95956.50
2019-01-30T01:24:05.651Z,95952.94
2019-01-30T01:26:39.956Z,95958.72
2019-01-30T01:29:10.888Z,95944.70
2019-01-30T01:31:41.416Z,95943.09
2019-01-30T01:34:12.363Z,95933.48
2019-01-30T01:36:46.057Z,95925.45
2019-01-30T01:39:16.916Z,95915.17
2019-01-30T01:41:50.279Z,95917.58
2019-01-30T01:44:28.942Z,95905.81
2019-01-30T01:47:02.827Z,95899.23
2019-01-30T01:49:36.649Z,95897.91
2019-01-30T01:52:21.616Z,95895.33
2019-01-30T01:54:41.282Z,95887.91
2019-01-30T01:57:13.617Z,95882.41
2019-01-30T01:59:44.311Z,95882.92
2019-01-30T02:02:14.892Z,95875.16
2019-01-30T02:04:45.490Z,95864.92
2019-01-30T02:07:16.195Z,95867.50
2019-01-30T02:09:48.066Z,95871.59
2019-01-30T02:12:18.976Z,95859.38
2019-01-30T02:14:50.601Z,95856.77
2019-01-30T02:17:21.363Z,95860.91
2019-01-30T02:19:52.114Z,95849.98
2019-01-30T02:22:24.641Z,95844.95
2019-01-30T02:24:55.513Z,95840.42
2019-01-30T02:27:29.649Z,95839.02
2019-01-30T02:30:02.002Z,95826.47
2019-01-30T02:32:32.629Z,95833.02
2019-01-30T02:35:03.494Z,95825.42
2019-01-30T02:37:35.830Z,95828.00
2019-01-30T02:40:12.139Z,95819.15
2019-01-30T02:42:43.990Z,95823.38
2019-01-30T02:45:25.488Z,95820.65
2019-01-30T02:47:59.514Z,95811.00
2019-01-30T02:50:35.124Z,95803.14
2019-01-30T02:53:10.744Z,95796.38
2019-01-30T02:55:41.946Z,95801.31
2019-01-30T02:58:12.885Z,95797.14
2019-01-30T03:00:45.417Z,95795.94
2019-01-30T03:03:15.992Z,95795.52
2019-01-30T03:05:48.339Z,95800.58
2019-01-30T03:08:19.161Z,95798.64
2019-01-30T03:10:50.064Z,95792.58
2019-01-30T03:13:21.084Z,95801.22
2019-01-30T03:15:51.818Z,95803.47
2019-01-30T03:18:28.730Z,95802.94
2019-01-30T03:21:01.110Z,95802.73
2019-01-30T03:23:31.866Z,95801.08
2019-01-30T03:26:02.647Z,95803.00
2019-01-30T03:28:33.387Z,95793.31
2019-01-30T03:31:16.861Z,95784.99
2019-01-30T03:33:36.650Z,95782.42
2019-01-30T03:36:09.676Z,95780.65
2019-01-30T03:38:41.432Z,95774.77
2019-01-30T03:41:12.378Z,95770.95
2019-01-30T03:43:43.106Z,95766.13
2019-01-30T03:46:13.854Z,95765.21
2019-01-30T03:48:47.663Z,95765.70
2019-01-30T03:51:21.352Z,95756.70
2019-01-30T03:53:51.904Z,95757.38
2019-01-30T03:56:41.619Z,95747.95
2019-01-30T03:59:15.646Z,95748.92
2019-01-30T04:01:46.555Z,95745.86
2019-01-30T04:04:17.766Z,95748.12
2019-01-30T04:06:48.557Z,95742.86
2019-01-30T04:09:19.569Z,95742.55
2019-01-30T04:11:50.607Z,95738.00
2019-01-30T04:14:21.616Z,95727.48
2019-01-30T04:16:58.403Z,95730.48
2019-01-30T04:19:29.480Z,95723.08
2019-01-30T04:22:00.234Z,95720.62
2019-01-30T04:24:31.156Z,95714.80
2019-01-30T04:27:05.403Z,95707.77
2019-01-30T04:29:38.356Z,95711.42
2019-01-30T04:32:14.398Z,95712.91
2019-01-30T04:34:46.567Z,95710.83
2019-01-30T04:37:17.301Z,95714.02
2019-01-30T04:39:49.579Z,95713.88
2019-01-30T04:42:20.314Z,95711.98
2019-01-30T04:44:51.367Z,95712.47
2019-01-30T04:47:21.958Z,95712.72
2019-01-30T04:49:55.846Z,95708.43
2019-01-30T04:52:30.143Z,95701.49
2019-01-30T04:55:00.848Z,95700.45
2019-01-30T04:57:31.612Z,95697.14
2019-01-30T05:00:02.422Z,95684.97
2019-01-30T05:02:33.420Z,95690.42
2019-01-30T05:05:07.954Z,95688.78
2019-01-30T05:07:38.908Z,95679.09
2019-01-30T05:10:11.403Z,95672.98
2019-01-30T05:12:42.139Z,95680.27
2019-01-30T05:15:18.967Z,95673.36
2019-01-30T05:17:50.714Z,95668.17
2019-01-30T05:20:21.736Z,95665.88
2019-01-30T05:22:52.515Z,95663.14
2019-01-30T05:25:23.197Z,95660.03
2019-01-30T05:27:53.918Z,95661.59
2019-01-30T05:30:29.495Z,95655.22
2019-01-30T05:33:00.082Z,95651.94
2019-01-30T05:35:30.729Z,95654.19
2019-01-30T05:38:01.319Z,95651.14
2019-01-30T05:40:31.980Z,95651.45
2019-01-30T05:43:02.646Z,95645.83
2019-01-30T05:45:33.244Z,95642.31
2019-01-30T05:48:03.788Z,95637.55
2019-01-30T05:50:34.387Z,95632.41
2019-01-30T05:53:05.087Z,95631.27
2019-01-30T05:55:35.809Z,95624.05
2019-01-30T05:58:06.700Z,95621.77
2019-01-30T06:00:41.970Z,95623.61
2019-01-30T06:03:12.605Z,95627.90
2019-01-30T06:05:43.143Z,95621.77
2019-01-30T06:08:13.712Z,95614.05
2019-01-30T06:10:44.304Z,95613.40
2019-01-30T06:13:14.912Z,95615.48
2019-01-30T06:15:45.581Z,95612.77
2019-01-30T06:18:16.769Z,95612.77
2019-01-30T06:20:47.707Z,95608.91
2019-01-30T06:23:18.403Z,95613.77
2019-01-30T06:25:49.092Z,95618.42
2019-01-30T06:28:19.828Z,95611.20
2019-01-30T06:30:50.570Z,95611.14
2019-01-30T06:33:21.193Z,95618.48
2019-01-30T06:35:51.921Z,95605.32
2019-01-30T06:38:22.555Z,95601.78
2019-01-30T06:40:53.198Z,95610.09
2019-01-30T06:43:23.767Z,95606.55
2019-01-30T06:45:54.376Z,95604.78
2019-01-30T06:48:24.931Z,95605.27
2019-01-30T06:50:55.548Z,95607.34
2019-01-30T06:53:26.615Z,95602.70
2019-01-30T06:55:57.163Z,95603.61
2019-01-30T06:58:27.838Z,95602.06
2019-01-30T07:00:58.442Z,95601.47
2019-01-30T07:03:29.042Z,95606.23
2019-01-30T07:05:59.643Z,95602.44
2019-01-30T07:08:31.818Z,95601.47
2019-01-30T07:11:10.472Z,95604.20
2019-01-30T07:13:35.236Z,95608.86
2019-01-30T07:16:05.897Z,95605.20
2019-01-30T07:18:36.611Z,95607.58
2019-01-30T07:21:07.252Z,95603.83
2019-01-30T07:23:37.886Z,95604.27
2019-01-30T07:26:08.531Z,95604.78
2019-01-30T07:28:40.876Z,95609.72
2019-01-30T07:31:11.543Z,95606.49
2019-01-30T07:33:42.214Z,95606.12
2019-01-30T07:36:13.064Z,95608.38
2019-01-30T07:38:43.743Z,95604.52
2019-01-30T07:41:14.448Z,95611.91
2019-01-30T07:43:45.045Z,95611.75
2019-01-30T07:46:15.660Z,95613.14
2019-01-30T07:48:46.477Z,95617.91
2019-01-30T07:51:17.081Z,95617.91
2019-01-30T07:53:48.756Z,95619.52
2019-01-30T07:56:19.332Z,95620.48
2019-01-30T07:58:51.156Z,95616.63
2019-01-30T08:01:22.251Z,95615.66
2019-01-30T08:03:53.253Z,95616.63
2019-01-30T08:06:23.994Z,95615.48
2019-01-30T08:08:54.582Z,95612.54
2019-01-30T08:11:25.271Z,95610.45
2019-01-30T08:13:55.846Z,95607.46
2019-01-30T08:16:26.512Z,95605.86
2019-01-30T08:18:57.324Z,95605.97
2019-01-30T08:21:28.250Z,95601.46
2019-01-30T08:23:58.879Z,95607.52
2019-01-30T08:26:29.906Z,95601.41
2019-01-30T08:29:00.857Z,95605.05
2019-01-30T08:31:32.095Z,95597.17
2019-01-30T08:34:03.128Z,95606.83
2019-01-30T08:36:33.923Z,95603.72
2019-01-30T08:39:08.067Z,95604.20
2019-01-30T08:41:39.212Z,95610.20
2019-01-30T08:44:09.981Z,95604.58
2019-01-30T08:46:40.816Z,95608.86
2019-01-30T08:49:11.972Z,95600.61
2019-01-30T08:51:44.097Z,95600.23
2019-01-30T08:54:14.824Z,95599.64
2019-01-30T08:56:52.954Z,95603.12
2019-01-30T08:59:18.179Z,95600.77
2019-01-30T09:01:48.798Z,95598.03
2019-01-30T09:04:19.451Z,95593.69
2019-01-30T09:06:50.289Z,95600.71
2019-01-30T09:09:21.001Z,95600.34
2019-01-30T09:11:51.707Z,95606.59
2019-01-30T09:14:22.323Z,95598.51
2019-01-30T09:16:53.076Z,95598.51
2019-01-30T09:19:23.808Z,95600.22
2019-01-30T09:21:54.940Z,95606.75
2019-01-30T09:24:25.625Z,95603.52
2019-01-30T09:26:56.353Z,95610.44
2019-01-30T09:29:26.884Z,95606.38
2019-01-30T09:31:57.677Z,95612.44
2019-01-30T09:34:28.382Z,95612.09
2019-01-30T09:36:59.058Z,95613.48
2019-01-30T09:39:32.739Z,95612.79
2019-01-30T09:42:03.352Z,95614.98
2019-01-30T09:44:33.936Z,95616.90
2019-01-30T09:47:04.475Z,95619.69
2019-01-30T09:49:35.052Z,95617.85
2019-01-30T09:52:05.932Z,95621.53
2019-01-30T09:54:36.517Z,95625.61
2019-01-30T09:57:07.264Z,95625.44
2019-01-30T09:59:37.791Z,95633.58
2019-01-30T10:02:08.390Z,95631.91
2019-01-30T10:04:38.888Z,95627.84
2019-01-30T10:07:09.483Z,95630.55
2019-01-30T10:09:40.078Z,95634.41
2019-01-30T10:12:10.626Z,95633.23
2019-01-30T10:14:41.192Z,95640.09
2019-01-30T10:17:11.844Z,95640.99
2019-01-30T10:19:42.450Z,95641.69
2019-01-30T10:22:13.042Z,95642.59
2019-01-30T10:24:46.713Z,95639.70
2019-01-30T10:27:17.323Z,95641.31
2019-01-30T10:29:47.945Z,95642.32
2019-01-30T10:32:18.691Z,95639.85
2019-01-30T10:34:49.214Z,95639.50
2019-01-30T10:37:19.724Z,95634.56
2019-01-30T10:39:50.326Z,95638.35
2019-01-30T10:42:21.016Z,95639.25
2019-01-30T10:44:51.516Z,95637.89
2019-01-30T10:47:22.190Z,95640.58
2019-01-30T10:49:52.745Z,95636.81
2019-01-30T10:52:23.419Z,95635.17
2019-01-30T10:54:54.004Z,95632.88
2019-01-30T10:57:24.641Z,95633.60
2019-01-30T10:59:55.173Z,95635.09
2019-01-30T11:02:25.739Z,95639.19
2019-01-30T11:04:56.291Z,95636.84
2019-01-30T11:07:26.837Z,95638.55
2019-01-30T11:09:57.376Z,95643.59
2019-01-30T11:12:30.731Z,95635.20
2019-01-30T11:15:03.023Z,95634.59
2019-01-30T11:17:33.649Z,95637.89
2019-01-30T11:20:05.029Z,95633.95
2019-01-30T11:22:35.606Z,95640.98
2019-01-30T11:25:11.074Z,95632.36
2019-01-30T11:27:41.677Z,95632.49
2019-01-30T11:30:13.463Z,95638.55
2019-01-30T11:32:43.986Z,95630.60
2019-01-30T11:35:14.915Z,95633.98
2019-01-30T11:37:45.453Z,95639.75
2019-01-30T11:40:17.783Z,95635.49
2019-01-30T11:42:48.423Z,95639.27
2019-01-30T11:45:28.595Z,95644.03
2019-01-30T11:47:59.184Z,95641.45
2019-01-30T11:50:29.753Z,95640.27
2019-01-30T11:53:00.362Z,95636.70
2019-01-30T11:55:30.909Z,95636.31
2019-01-30T11:58:01.503Z,95641.48
2019-01-30T12:00:38.496Z,95640.98
2019-01-30T12:03:09.057Z,95646.73
2019-01-30T12:05:39.742Z,95646.24
2019-01-30T12:08:10.327Z,95645.36
2019-01-30T12:10:40.918Z,95654.88
2019-01-30T12:13:11.437Z,95652.60
2019-01-30T12:15:42.018Z,95653.89
2019-01-30T12:18:12.672Z,95651.10
2019-01-30T12:20:43.253Z,95654.08
2019-01-30T12:23:14.780Z,95654.00
2019-01-30T12:25:45.324Z,95656.48
2019-01-30T12:28:15.857Z,95661.86
2019-01-30T12:30:46.409Z,95664.94
2019-01-30T12:33:17.244Z,95664.63
2019-01-30T12:35:47.770Z,95671.97
2019-01-30T12:38:18.396Z,95671.17
2019-01-30T12:40:49.019Z,95676.16
2019-01-30T12:43:19.599Z,95679.23
2019-01-30T12:45:50.092Z,95678.06
2019-01-30T12:48:20.682Z,95676.55
2019-01-30T12:50:51.362Z,95690.66
2019-01-30T12:53:21.900Z,95690.47
2019-01-30T12:55:52.570Z,95696.92
2019-01-30T12:58:23.144Z,95705.74
2019-01-30T13:00:53.735Z,95708.02
2019-01-30T13:03:24.296Z,95704.45
2019-01-30T13:05:55.962Z,95714.68
2019-01-30T13:08:26.543Z,95719.63
2019-01-30T13:10:57.059Z,95718.95
2019-01-30T13:13:27.658Z,95729.86
2019-01-30T13:15:58.164Z,95728.88
2019-01-30T13:18:28.794Z,95737.41
2019-01-30T13:20:59.328Z,95748.63
2019-01-30T13:23:29.951Z,95752.90
2019-01-30T13:26:00.549Z,95762.11
2019-01-30T13:28:31.240Z,95765.27
2019-01-30T13:31:01.810Z,95771.61
2019-01-30T13:33:32.909Z,95785.86
2019-01-30T13:36:04.042Z,95798.74
2019-01-30T13:38:37.672Z,95802.32
2019-01-30T13:41:08.231Z,95807.69
2019-01-30T13:43:38.844Z,95814.63
2019-01-30T13:46:09.373Z,95816.20
2019-01-30T13:48:39.979Z,95821.72
2019-01-30T13:51:11.304Z,95834.20
2019-01-30T13:53:42.270Z,95832.42
2019-01-30T13:56:12.942Z,95844.31
2019-01-30T13:58:43.464Z,95850.48
2019-01-30T14:01:17.594Z,95855.36
2019-01-30T14:03:46.319Z,95861.52
2019-01-30T14:06:16.995Z,95867.06
2019-01-30T14:08:47.549Z,95879.23
2019-01-30T14:11:18.191Z,95883.03
2019-01-30T14:13:48.777Z,95890.84
2019-01-30T14:16:19.299Z,95901.67
2019-01-30T14:18:53.099Z,95895.58
2019-01-30T14:21:23.708Z,95905.41
2019-01-30T14:23:54.324Z,95908.09
2019-01-30T14:26:24.824Z,95917.36
2019-01-30T14:28:56.006Z,95917.43
2019-01-30T14:31:26.596Z,95915.27
2019-01-30T14:33:57.370Z,95926.42
2019-01-30T14:36:31.066Z,95929.80
2019-01-30T14:39:01.741Z,95927.26
2019-01-30T14:41:32.446Z,95936.70
2019-01-30T14:44:03.018Z,95947.83
2019-01-30T14:46:33.577Z,95957.52
2019-01-30T14:49:04.149Z,95965.57
2019-01-30T14:51:34.654Z,95969.65
2019-01-30T14:54:05.398Z,95971.19
2019-01-30T14:56:35.986Z,95982.02
2019-01-30T14:59:06.510Z,95990.06
2019-01-30T15:01:37.165Z,95997.69
2019-01-30T15:04:07.679Z,96001.42
2019-01-30T15:06:38.222Z,96012.32
2019-01-30T15:09:11.167Z,96020.80
2019-01-30T15:11:41.678Z,96019.00
2019-01-30T15:14:12.311Z,96029.69
2019-01-30T15:16:42.881Z,96027.36
2019-01-30T15:19:13.480Z,96039.08
2019-01-30T15:21:44.033Z,96037.36
2019-01-30T15:24:14.603Z,96035.09
2019-01-30T15:26:45.080Z,96045.21
2019-01-30T15:29:15.659Z,96046.33
2019-01-30T15:31:47.304Z,96053.95
2019-01-30T15:34:17.824Z,96063.95
2019-01-30T15:36:49.674Z,96065.19
2019-01-30T15:39:20.288Z,96068.14
2019-01-30T15:41:50.815Z,96074.38
2019-01-30T15:44:21.415Z,96070.94
2019-01-30T15:46:51.918Z,96077.52
2019-01-30T15:49:22.552Z,96086.27
2019-01-30T15:51:53.151Z,96080.80
2019-01-30T15:54:23.708Z,96084.01
2019-01-30T15:56:54.277Z,96091.69
2019-01-30T15:59:24.824Z,96091.86
2019-01-30T16:01:55.373Z,96095.23
2019-01-30T16:04:25.935Z,96096.41
2019-01-30T16:06:56.489Z,96093.45
2019-01-30T16:09:27.063Z,96094.25
2019-01-30T16:11:57.597Z,96097.11
2019-01-30T16:14:28.173Z,96096.63
2019-01-30T16:16:58.738Z,96100.20
2019-01-30T16:19:32.304Z,96103.39
2019-01-30T16:22:02.867Z,96102.83
2019-01-30T16:24:33.416Z,96106.77
2019-01-30T16:27:03.997Z,96101.49
2019-01-30T16:29:34.553Z,96108.86
2019-01-30T16:32:05.537Z,96121.42
2019-01-30T16:34:36.083Z,96122.71
2019-01-30T16:37:07.180Z,96125.89
2019-01-30T16:39:38.406Z,96128.47
2019-01-30T16:42:08.951Z,96134.27
2019-01-30T16:44:39.583Z,96140.06
2019-01-30T16:47:10.120Z,96141.23
2019-01-30T16:49:40.699Z,96144.61
2019-01-30T16:52:11.270Z,96148.64
2019-01-30T16:54:41.848Z,96141.44
2019-01-30T16:57:12.426Z,96150.62
2019-01-30T16:59:43.029Z,96149.65
2019-01-30T17:02:13.618Z,96154.65
2019-01-30T17:04:44.156Z,96163.67
2019-01-30T17:07:14.694Z,96173.98
2019-01-30T17:09:45.240Z,96176.88
2019-01-30T17:12:15.804Z,96179.45
2019-01-30T17:14:46.306Z,96179.85
2019-01-30T17:17:16.869Z,96187.73
2019-01-30T17:19:47.408Z,96194.38
2019-01-30T17:22:18.101Z,96206.78
2019-01-30T17:24:48.666Z,96207.27
2019-01-30T17:27:19.315Z,96207.14
2019-01-30T17:29:49.867Z,96221.19
2019-01-30T17:32:22.649Z,96218.25
2019-01-30T17:34:53.221Z,96218.09
2019-01-30T17:37:23.747Z,96224.20
2019-01-30T17:39:54.343Z,96225.82
2019-01-30T17:42:24.869Z,96224.69
2019-01-30T17:44:57.504Z,96239.83
2019-01-30T17:47:28.075Z,96232.91
2019-01-30T17:49:58.974Z,96237.16
2019-01-30T17:52:29.531Z,96243.56
2019-01-30T17:55:00.098Z,96249.56
2019-01-30T17:57:31.005Z,96263.24
2019-01-30T18:00:07.049Z,96261.15
2019-01-30T18:02:39.923Z,96267.27
2019-01-30T18:05:10.569Z,96271.42
2019-01-30T18:07:41.254Z,96282.20
2019-01-30T18:10:12.976Z,96287.17
2019-01-30T18:12:43.542Z,96287.20
2019-01-30T18:15:14.710Z,96288.20
2019-01-30T18:17:45.276Z,96293.64
2019-01-30T18:20:18.154Z,96293.35
2019-01-30T18:22:48.769Z,96298.18
2019-01-30T18:25:19.353Z,96299.79
2019-01-30T18:27:50.101Z,96297.73
2019-01-30T18:30:20.840Z,96299.24
2019-01-30T18:32:51.425Z,96301.66
2019-01-30T18:35:21.976Z,96302.46
2019-01-30T18:37:52.582Z,96302.78
2019-01-30T18:40:23.839Z,96306.33
2019-01-30T18:42:58.522Z,96301.88
2019-01-30T18:45:29.300Z,96306.41
2019-01-30T18:48:00.052Z,96306.73
2019-01-30T18:50:30.983Z,96320.31
2019-01-30T18:53:01.557Z,96310.33
2019-01-30T18:55:32.172Z,96310.02
2019-01-30T18:58:02.781Z,96309.69
2019-01-30T19:00:43.577Z,96316.12
2019-01-30T19:03:22.759Z,96319.21
2019-01-30T19:05:53.377Z,96320.34
2019-01-30T19:08:23.957Z,96316.82
2019-01-30T19:10:57.250Z,96318.91
2019-01-30T19:13:27.768Z,96321.67
2019-01-30T19:15:58.506Z,96327.95
2019-01-30T19:18:32.216Z,96328.43
2019-01-30T19:21:02.955Z,96334.59
2019-01-30T19:23:35.572Z,96329.31
2019-01-30T19:26:06.296Z,96334.48
2019-01-30T19:28:39.805Z,96331.94
2019-01-30T19:31:10.395Z,96331.28
2019-01-30T19:33:41.119Z,96335.66
2019-01-30T19:36:11.689Z,96334.06
2019-01-30T19:38:44.348Z,96338.94
2019-01-30T19:41:15.090Z,96342.49
2019-01-30T19:43:45.883Z,96338.03
2019-01-30T19:46:16.692Z,96337.40
2019-01-30T19:48:47.583Z,96341.45
2019-01-30T19:51:18.462Z,96343.21
2019-01-30T19:53:52.161Z,96350.33
2019-01-30T19:56:22.990Z,96353.72
2019-01-30T19:58:53.868Z,96359.34
2019-01-30T20:01:35.663Z,96363.69
2019-01-30T20:03:57.317Z,96351.64
2019-01-30T20:06:28.342Z,96351.31
2019-01-30T20:08:59.320Z,96351.02
2019-01-30T20:11:30.470Z,96349.73
2019-01-30T20:14:01.478Z,96352.12
2019-01-30T20:16:35.251Z,96353.92
2019-01-30T20:19:09.751Z,96351.03
2019-01-30T20:21:42.467Z,96360.66
2019-01-30T20:24:24.952Z,96356.33
2019-01-30T20:26:57.831Z,96360.51
2019-01-30T20:29:31.415Z,96355.04
2019-01-30T20:32:05.181Z,96360.03
2019-01-30T20:34:38.885Z,96360.18
2019-01-30T20:37:09.889Z,96367.09
2019-01-30T20:39:40.522Z,96367.27
2019-01-30T20:42:13.250Z,96370.34
2019-01-30T20:44:47.009Z,96376.14
2019-01-30T20:47:17.911Z,96375.48
2019-01-30T20:49:51.895Z,96378.38
2019-01-30T20:52:24.162Z,96384.81
2019-01-30T20:54:59.782Z,96384.20
2019-01-30T20:57:28.255Z,96388.86
2019-01-30T20:59:59.239Z,96394.48
2019-01-30T21:02:29.935Z,96394.81
2019-01-30T21:05:00.892Z,96392.58
2019-01-30T21:07:37.412Z,96392.73
2019-01-30T21:10:05.918Z,96393.06
2019-01-30T21:12:37.290Z,96394.50
2019-01-30T21:15:10.861Z,96395.78
2019-01-30T21:17:41.422Z,96393.88
2019-01-30T21:20:12.774Z,96393.88
2019-01-30T21:22:43.641Z,96396.45
2019-01-30T21:25:19.946Z,96393.58
2019-01-30T21:27:51.070Z,96392.93
2019-01-30T21:30:27.554Z,96392.30
2019-01-30T21:32:58.126Z,96399.38
2019-01-30T21:35:28.719Z,96396.01
2019-01-30T21:37:59.391Z,96391.20
2019-01-30T21:40:29.964Z,96390.72
2019-01-30T21:43:00.527Z,96394.58
2019-01-30T21:45:31.052Z,96391.86
2019-01-30T21:48:01.632Z,96397.80
2019-01-30T21:50:32.183Z,96393.77
2019-01-30T21:53:02.760Z,96389.77
2019-01-30T21:55:33.352Z,96395.85
2019-01-30T21:58:03.903Z,96390.72
2019-01-30T22:00:34.523Z,96388.81
2019-01-30T22:03:09.315Z,96396.00
2019-01-30T22:05:39.599Z,96391.53
2019-01-30T22:08:10.324Z,96391.05
2019-01-30T22:10:40.975Z,96391.34
2019-01-30T22:13:11.560Z,96388.13
2019-01-30T22:15:42.150Z,96388.78
2019-01-30T22:18:15.919Z,96389.88
2019-01-30T22:20:46.697Z,96388.45
2019-01-30T22:23:17.855Z,96390.20
2019-01-30T22:25:48.524Z,96389.07
2019-01-30T22:28:25.965Z,96383.93
2019-01-30T22:30:58.863Z,96381.03
2019-01-30T22:33:34.193Z,96390.35
2019-01-30T22:36:05.495Z,96378.61
2019-01-30T22:38:36.340Z,96383.45
2019-01-30T22:41:10.334Z,96377.80
2019-01-30T22:43:42.506Z,96370.08
2019-01-30T22:46:13.742Z,96381.83
2019-01-30T22:48:44.755Z,96378.45
2019-01-30T22:51:16.031Z,96382.30
2019-01-30T22:53:47.138Z,96375.54
2019-01-30T22:56:19.429Z,96376.16
2019-01-30T22:58:54.932Z,96373.44
2019-01-30T23:01:51.805Z,96376.48
2019-01-30T23:05:08.854Z,96380.48
2019-01-30T23:08:06.939Z,96378.05
2019-01-30T23:11:26.997Z,96367.95
2019-01-30T23:14:06.563Z,96370.68
2019-01-30T23:17:31.087Z,96367.77
2019-01-30T23:20:28.835Z,96368.57
2019-01-30T23:23:45.219Z,96358.95
2019-01-30T23:26:54.641Z,96355.57
2019-01-30T23:30:12.632Z,96356.20
2019-01-30T23:33:29.085Z,96350.72
2019-01-30T23:36:44.089Z,96347.52
2019-01-30T23:39:45.142Z,96347.38
2019-01-30T23:43:08.098Z,96350.77
2019-01-30T23:46:23.765Z,96346.92
2019-01-30T23:50:16.775Z,96332.59
2019-01-30T23:53:47.695Z,96334.70
2019-01-30T23:57:00.839Z,96336.64
